^^
Station Historical Data
Daily Summary for May 6, 2019 Units:  English    Metric   Both
« Previous Day
Next Day »
Daily Weekly Monthly Yearly Custom
  High: Low: Average:
Temperature: 53.3 °F 28.7 °F 41.5 °F
Dew Point: 34.1 °F 25.3 °F 28.9 °F
Humidity: 91% 37% 64%
Wind Speed: 13mph 0mph 4.4mph
Wind Gust: 16mph - -
Wind- - SSW
Pressure: 30.16 in 30.02 in -
Precipitation: 0 in    
Historical Graphs
 
 
Tabular Data for May 6, 2019
Time Temperature Dew Point Pressure Wind Wind Speed Wind Gust Humidity Rainfall Rate (Hourly) solar Conditions
00:04 32.4 °F 29.5 °F 30.02 in NW 5 mph 7 mph 89% 0 in 0.00 W/m2
00:09 32.5 °F 29.6 °F 30.02 in NW 5 mph 7 mph 89% 0 in 0.00 W/m2
00:14 32.3 °F 29.4 °F 30.02 in NW 6 mph 6 mph 89% 0 in 0.00 W/m2
00:19 32.2 °F 29.3 °F 30.02 in NW 5 mph 6 mph 89% 0 in 0.00 W/m2
00:24 32.2 °F 29.3 °F 30.02 in NW 5 mph 6 mph 89% 0 in 0.00 W/m2
00:29 32.1 °F 29.2 °F 30.02 in NW 5 mph 6 mph 89% 0 in 0.00 W/m2
00:34 32.1 °F 29.2 °F 30.02 in NW 5 mph 6 mph 89% 0 in 0.00 W/m2
00:39 32 °F 29.1 °F 30.02 in NW 4 mph 5 mph 89% 0 in 0.00 W/m2
00:44 31.9 °F 29 °F 30.03 in NW 5 mph 5 mph 89% 0 in 0.00 W/m2
00:49 31.7 °F 28.8 °F 30.03 in NW 4 mph 5 mph 89% 0 in 0.00 W/m2
00:54 31.5 °F 28.6 °F 30.03 in NW 4 mph 6 mph 89% 0 in 0.00 W/m2
00:59 31.4 °F 28.5 °F 30.03 in NW 4 mph 6 mph 89% 0 in 0.00 W/m2
01:04 31.4 °F 28.8 °F 30.03 in NW 4 mph 6 mph 90% 0 in 0.00 W/m2
01:09 31.5 °F 28.9 °F 30.03 in NW 4 mph 5 mph 90% 0 in 0.00 W/m2
01:14 31.5 °F 28.9 °F 30.04 in NW 4 mph 5 mph 90% 0 in 0.00 W/m2
01:19 31.4 °F 28.8 °F 30.04 in NW 4 mph 5 mph 90% 0 in 0.00 W/m2
01:24 31.5 °F 28.9 °F 30.04 in NW 4 mph 5 mph 90% 0 in 0.00 W/m2
01:29 31.5 °F 28.9 °F 30.04 in NW 5 mph 5 mph 90% 0 in 0.00 W/m2
01:34 31.6 °F 29 °F 30.04 in NW 5 mph 6 mph 90% 0 in 0.00 W/m2
01:39 31.7 °F 28.8 °F 30.04 in NW 4 mph 6 mph 89% 0 in 0.00 W/m2
01:44 31.7 °F 28.8 °F 30.04 in NW 4 mph 6 mph 89% 0 in 0.00 W/m2
01:49 31.7 °F 28.8 °F 30.04 in NW 3 mph 6 mph 89% 0 in 0.00 W/m2
01:54 31.6 °F 28.5 °F 30.04 in NW 3 mph 6 mph 88% 0 in 0.00 W/m2
01:59 31.3 °F 28.4 °F 30.04 in NW 3 mph 6 mph 89% 0 in 0.00 W/m2
02:04 31.1 °F 28.2 °F 30.05 in NW 2 mph 4 mph 89% 0 in 0.00 W/m2
02:09 31.1 °F 28.2 °F 30.05 in NW 3 mph 4 mph 89% 0 in 0.00 W/m2
02:14 31 °F 28.1 °F 30.05 in Calm   4 mph 89% 0 in 0.00 W/m2
02:19 31 °F 28.1 °F 30.05 in NW 2 mph 4 mph 89% 0 in 0.00 W/m2
02:24 30.8 °F 27.9 °F 30.05 in NNW 3 mph 6 mph 89% 0 in 0.00 W/m2
02:29 30.8 °F 27.9 °F 30.05 in NNW 8 mph 9 mph 89% 0 in 0.00 W/m2
02:34 31 °F 28.1 °F 30.05 in NNW 5 mph 9 mph 89% 0 in 0.00 W/m2
02:39 31.1 °F 28.2 °F 30.05 in NNW 8 mph 10 mph 89% 0 in 0.00 W/m2
02:44 31.4 °F 28.3 °F 30.05 in NW 5 mph 10 mph 88% 0 in 0.00 W/m2
02:49 31.7 °F 28.3 °F 30.05 in NW 4 mph 9 mph 87% 0 in 0.00 W/m2
02:54 31.9 °F 28.2 °F 30.05 in NW 3 mph 9 mph 86% 0 in 0.00 W/m2
02:59 32 °F 28.3 °F 30.05 in NW 4 mph 9 mph 86% 0 in 0.00 W/m2
03:04 32.1 °F 28.1 °F 30.05 in NW 4 mph 9 mph 85% 0 in 0.00 W/m2
03:09 32 °F 28 °F 30.06 in North 5 mph 10 mph 85% 0 in 0.00 W/m2
03:14 31.9 °F 27.9 °F 30.06 in NE 5 mph 10 mph 85% 0 in 0.00 W/m2
03:19 31.7 °F 28 °F 30.06 in NE 4 mph 10 mph 86% 0 in 0.00 W/m2
03:24 31.6 °F 27.9 °F 30.06 in NE 4 mph 10 mph 86% 0 in 0.00 W/m2
03:29 31.5 °F 27.8 °F 30.06 in NE 4 mph 6 mph 86% 0 in 0.00 W/m2
03:34 31.4 °F 27.7 °F 30.06 in NE 4 mph 7 mph 86% 0 in 0.00 W/m2
03:39 31.1 °F 27.1 °F 30.06 in ENE 3 mph 7 mph 85% 0 in 0.00 W/m2
03:44 30.8 °F 26.8 °F 30.06 in ENE 4 mph 6 mph 85% 0 in 0.00 W/m2
03:49 30.6 °F 26.9 °F 30.06 in ENE 2 mph 6 mph 86% 0 in 0.00 W/m2
03:54 30.5 °F 26.8 °F 30.06 in ENE 4 mph 6 mph 86% 0 in 0.00 W/m2
03:59 30.6 °F 27.2 °F 30.07 in ENE 4 mph 6 mph 87% 0 in 0.00 W/m2
04:04 30.9 °F 27.5 °F 30.07 in ENE 4 mph 6 mph 87% 0 in 0.00 W/m2
04:09 30.6 °F 26.9 °F 30.07 in East 2 mph 6 mph 86% 0 in 0.00 W/m2
04:14 30.5 °F 26.8 °F 30.07 in East 1 mph 6 mph 86% 0 in 0.00 W/m2
04:19 30.4 °F 27 °F 30.07 in East 3 mph 4 mph 87% 0 in 0.00 W/m2
04:24 30.5 °F 27.4 °F 30.07 in East 2 mph 4 mph 88% 0 in 0.00 W/m2
04:29 30.4 °F 27 °F 30.07 in East 3 mph 4 mph 87% 0 in 0.00 W/m2
04:34 30.2 °F 26.8 °F 30.07 in Calm   4 mph 87% 0 in 0.00 W/m2
04:39 30.1 °F 27 °F 30.07 in Calm   4 mph 88% 0 in 0.00 W/m2
04:44 29.9 °F 26.8 °F 30.07 in East 2 mph 4 mph 88% 0 in 0.00 W/m2
04:49 29.9 °F 26.8 °F 30.07 in NE 3 mph 4 mph 88% 0 in 0.00 W/m2
04:54 29.8 °F 26.7 °F 30.07 in NE 3 mph 4 mph 88% 0 in 0.00 W/m2
04:59 29.4 °F 26.3 °F 30.07 in NE 2 mph 4 mph 88% 0 in 0.00 W/m2
05:04 29.2 °F 26.4 °F 30.07 in Calm   4 mph 89% 0 in 0.00 W/m2
05:09 29.1 °F 26.3 °F 30.07 in Calm   4 mph 89% 0 in 0.00 W/m2
05:14 29 °F 26.2 °F 30.07 in Calm     89% 0 in 0.00 W/m2
05:19 28.9 °F 26.1 °F 30.07 in NE 2 mph 3 mph 89% 0 in 0.00 W/m2
05:24 28.9 °F 26.1 °F 30.07 in NE 2 mph 3 mph 89% 0 in 0.00 W/m2
05:29 28.9 °F 26.1 °F 30.07 in Calm   3 mph 89% 0 in 0.00 W/m2
05:34 28.7 °F 26.1 °F 30.07 in Calm   3 mph 90% 0 in 0.00 W/m2
05:39 28.7 °F 26.1 °F 30.07 in NE 2 mph 3 mph 90% 0 in 0.00 W/m2
05:44 28.9 °F 26.3 °F 30.07 in NE 3 mph 4 mph 90% 0 in 0.00 W/m2
05:49 29.3 °F 27 °F 30.07 in ENE 4 mph 6 mph 91% 0 in 0.00 W/m2
05:54 29.8 °F 27.5 °F 30.07 in ENE 4 mph 8 mph 91% 0 in 0.00 W/m2
05:59 30.1 °F 27.5 °F 30.07 in East 5 mph 8 mph 90% 0 in 0.00 W/m2
06:04 30.4 °F 27.5 °F 30.07 in East 5 mph 9 mph 89% 0 in 0.00 W/m2
06:09 30.7 °F 27.6 °F 30.07 in ENE 6 mph 9 mph 88% 0 in 0.00 W/m2
06:14 30.8 °F 27.4 °F 30.08 in East 7 mph 9 mph 87% 0 in 0.00 W/m2
06:19 30.8 °F 27.4 °F 30.08 in East 5 mph 9 mph 87% 0 in 0.00 W/m2
06:24 30.9 °F 27.2 °F 30.09 in ENE 5 mph 9 mph 86% 0 in 5.00 W/m2
06:29 30.8 °F 27.1 °F 30.09 in East 6 mph 9 mph 86% 0 in 7.00 W/m2
06:34 30.7 °F 27 °F 30.09 in ESE 6 mph 10 mph 86% 0 in 11.00 W/m2
06:39 30.6 °F 26.9 °F 30.09 in East 7 mph 10 mph 86% 0 in 14.00 W/m2
06:44 30.4 °F 26.7 °F 30.09 in ENE 8 mph 10 mph 86% 0 in 18.00 W/m2
06:49 30.4 °F 27 °F 30.09 in East 8 mph 10 mph 87% 0 in 21.00 W/m2
06:54 30.5 °F 27.1 °F 30.09 in East 10 mph 11 mph 87% 0 in 28.00 W/m2
06:59 30.5 °F 27.1 °F 30.09 in ENE 6 mph 11 mph 87% 0 in 33.00 W/m2
07:04 30.6 °F 27.2 °F 30.09 in ENE 8 mph 11 mph 87% 0 in 40.00 W/m2
07:09 30.7 °F 27.3 °F 30.10 in East 8 mph 11 mph 87% 0 in 49.00 W/m2
07:14 30.8 °F 27.7 °F 30.09 in East 8 mph 11 mph 88% 0 in 63.00 W/m2
07:19 30.9 °F 27.8 °F 30.09 in East 9 mph 11 mph 88% 0 in 70.00 W/m2
07:24 31.1 °F 28 °F 30.09 in East 8 mph 11 mph 88% 0 in 79.00 W/m2
07:29 31.4 °F 28.3 °F 30.09 in East 7 mph 12 mph 88% 0 in 88.00 W/m2
07:34 31.7 °F 28.6 °F 30.10 in East 10 mph 12 mph 88% 0 in 97.00 W/m2
07:39 32.1 °F 28.9 °F 30.10 in East 8 mph 12 mph 88% 0 in 98.00 W/m2
07:44 32.5 °F 29.3 °F 30.10 in ESE 10 mph 12 mph 88% 0 in 102.00 W/m2
07:49 32.9 °F 29.5 °F 30.10 in ESE 8 mph 12 mph 87% 0 in 139.00 W/m2
07:54 33.4 °F 29.9 °F 30.10 in ESE 11 mph 12 mph 87% 0 in 169.00 W/m2
07:59 33.8 °F 30.1 °F 30.10 in ESE 10 mph 14 mph 86% 0 in 176.00 W/m2
08:04 34.3 °F 30.3 °F 30.10 in East 12 mph 14 mph 85% 0 in 264.00 W/m2
08:09 34.8 °F 30.5 °F 30.10 in SE 11 mph 14 mph 84% 0 in 211.00 W/m2
08:14 35 °F 30.4 °F 30.11 in ESE 10 mph 14 mph 83% 0 in 165.00 W/m2
08:19 35.2 °F 30.3 °F 30.11 in SE 10 mph 13 mph 82% 0 in 195.00 W/m2
08:24 35.3 °F 30.1 °F 30.11 in ESE 8 mph 15 mph 81% 0 in 260.00 W/m2
08:29 36 °F 30.7 °F 30.11 in ESE 13 mph 15 mph 81% 0 in 325.00 W/m2
08:34 36.2 °F 30 °F 30.11 in ESE 12 mph 16 mph 78% 0 in 281.00 W/m2
08:39 36.6 °F 30.4 °F 30.11 in SE 12 mph 16 mph 78% 0 in 297.00 W/m2
08:44 36.8 °F 29.9 °F 30.11 in SE 9 mph 14 mph 76% 0 in 315.00 W/m2
08:49 36.7 °F 29.5 °F 30.11 in SE 10 mph 16 mph 75% 0 in 255.00 W/m2
08:54 36.7 °F 29.5 °F 30.11 in SE 11 mph 16 mph 75% 0 in 230.00 W/m2
08:59 36.5 °F 29.7 °F 30.11 in SE 12 mph 14 mph 76% 0 in 234.00 W/m2
09:04 36.6 °F 29.7 °F 30.11 in SE 11 mph 14 mph 76% 0 in 246.00 W/m2
09:09 36.8 °F 29.6 °F 30.11 in SE 11 mph 14 mph 75% 0 in 244.00 W/m2
09:14 37 °F 30.1 °F 30.11 in SE 9 mph 14 mph 76% 0 in 262.00 W/m2
09:19 37.1 °F 29.6 °F 30.11 in ESE 13 mph 14 mph 74% 0 in 255.00 W/m2
09:24 37.2 °F 29.7 °F 30.11 in SE 8 mph 14 mph 74% 0 in 246.00 W/m2
09:29 37.4 °F 29.9 °F 30.11 in ESE 13 mph 13 mph 74% 0 in 241.00 W/m2
09:34 37.3 °F 29.8 °F 30.11 in ESE 7 mph 13 mph 74% 0 in 241.00 W/m2
09:39 37.5 °F 30.3 °F 30.11 in ESE 9 mph 13 mph 75% 0 in 239.00 W/m2
09:44 37.7 °F 30.5 °F 30.12 in East 10 mph 13 mph 75% 0 in 258.00 W/m2
09:49 37.9 °F 31 °F 30.12 in SE 7 mph 13 mph 76% 0 in 274.00 W/m2
09:54 38.1 °F 30.9 °F 30.12 in SE 8 mph 14 mph 75% 0 in 287.00 W/m2
09:59 38.3 °F 30.7 °F 30.12 in SSE 7 mph 14 mph 74% 0 in 299.00 W/m2
10:04 38.7 °F 30.8 °F 30.12 in SE 12 mph 14 mph 73% 0 in 304.00 W/m2
10:09 38.7 °F 30.4 °F 30.13 in ESE 9 mph 14 mph 72% 0 in 304.00 W/m2
10:14 39 °F 30.7 °F 30.13 in SSE 10 mph 14 mph 72% 0 in 329.00 W/m2
10:19 39.1 °F 30.8 °F 30.13 in SSE 5 mph 14 mph 72% 0 in 364.00 W/m2
10:24 39.5 °F 31.2 °F 30.13 in SSE 8 mph 14 mph 72% 0 in 387.00 W/m2
10:29 39.9 °F 31.6 °F 30.13 in SSE 6 mph 14 mph 72% 0 in 406.00 W/m2
10:34 40.5 °F 31.8 °F 30.14 in SSE 8 mph 14 mph 71% 0 in 520.00 W/m2
10:39 40.7 °F 31.7 °F 30.14 in SSE 6 mph 14 mph 70% 0 in 513.00 W/m2
10:44 41.2 °F 32.2 °F 30.14 in SSE 7 mph 12 mph 70% 0 in 652.00 W/m2
10:49 41.6 °F 31.8 °F 30.14 in East 4 mph 12 mph 68% 0 in 584.00 W/m2
10:54 42 °F 32.2 °F 30.14 in SSE 3 mph 11 mph 68% 0 in 589.00 W/m2
10:59 42.3 °F 31.7 °F 30.13 in SE 5 mph 11 mph 66% 0 in 636.00 W/m2
11:04 42.8 °F 32.6 °F 30.14 in SSE 5 mph 11 mph 67% 0 in 682.00 W/m2
11:09 43.5 °F 32.5 °F 30.14 in SSW 8 mph 9 mph 65% 0 in 696.00 W/m2
11:14 44 °F 32.6 °F 30.14 in South 4 mph 9 mph 64% 0 in 587.00 W/m2
11:19 43.9 °F 32.5 °F 30.14 in South 9 mph 10 mph 64% 0 in 482.00 W/m2
11:24 43.8 °F 32 °F 30.14 in SE 5 mph 10 mph 63% 0 in 468.00 W/m2
11:29 43.9 °F 31.3 °F 30.14 in ESE 4 mph 8 mph 61% 0 in 520.00 W/m2
11:34 44 °F 31.8 °F 30.14 in SSW 3 mph 8 mph 62% 0 in 582.00 W/m2
11:39 44.6 °F 33.6 °F 30.14 in SSE 3 mph 8 mph 65% 0 in 605.00 W/m2
11:44 45.6 °F 34.1 °F 30.14 in SE 5 mph 8 mph 64% 0 in 605.00 W/m2
11:49 46.2 °F 33.5 °F 30.14 in SSW 3 mph 10 mph 61% 0 in 649.00 W/m2
11:54 46 °F 32 °F 30.14 in SSW 1 mph 10 mph 58% 0 in 594.00 W/m2
11:59 45.9 °F 32.4 °F 30.14 in SE 5 mph 9 mph 59% 0 in 578.00 W/m2
12:04 46.1 °F 32.1 °F 30.14 in SSW 3 mph 9 mph 58% 0 in 605.00 W/m2
12:09 46.1 °F 32.6 °F 30.14 in South 1 mph 8 mph 59% 0 in 696.00 W/m2
12:14 46.7 °F 33.5 °F 30.14 in East 4 mph 8 mph 60% 0 in 807.00 W/m2
12:19 47.4 °F 33.4 °F 30.14 in SW 6 mph 8 mph 58% 0 in 731.00 W/m2
12:24 47.1 °F 31.3 °F 30.14 in West 1 mph 6 mph 54% 0 in 728.00 W/m2
12:29 46.9 °F 32 °F 30.14 in South 4 mph 6 mph 56% 0 in 649.00 W/m2
12:34 46.9 °F 32 °F 30.14 in SSW 3 mph 9 mph 56% 0 in 589.00 W/m2
12:39 47.1 °F 30.8 °F 30.14 in SW 2 mph 9 mph 53% 0 in 686.00 W/m2
12:44 47.2 °F 30.9 °F 30.14 in WSW 2 mph 8 mph 53% 0 in 752.00 W/m2
12:49 47.1 °F 30.8 °F 30.14 in West 2 mph 8 mph 53% 0 in 803.00 W/m2
12:54 47.3 °F 31.9 °F 30.14 in North 2 mph 4 mph 55% 0 in 1002.00 W/m2
12:59 48.5 °F 33.1 °F 30.14 in North 2 mph 4 mph 55% 0 in 918.00 W/m2
13:04 49.6 °F 33.6 °F 30.14 in ENE 1 mph 4 mph 54% 0 in 942.00 W/m2
13:09 50.5 °F 31 °F 30.13 in SE 3 mph 5 mph 47% 0 in 951.00 W/m2
13:14 50.2 °F 31.2 °F 30.13 in ESE 6 mph 7 mph 48% 0 in 963.00 W/m2
13:19 50 °F 30.5 °F 30.13 in ESE 3 mph 8 mph 47% 0 in 1000.00 W/m2
13:24 50.3 °F 31.3 °F 30.13 in East 6 mph 8 mph 48% 0 in 1011.00 W/m2
13:29 50.5 °F 30.5 °F 30.13 in ESE 2 mph 8 mph 46% 0 in 1042.00 W/m2
13:34 51 °F 32.5 °F 30.13 in SSW 6 mph 8 mph 49% 0 in 1106.00 W/m2
13:39 51 °F 31.5 °F 30.12 in SW 12 mph 12 mph 47% 0 in 1123.00 W/m2
13:44 50.6 °F 28.9 °F 30.12 in WSW 7 mph 12 mph 43% 0 in 1051.00 W/m2
13:49 50 °F 26.6 °F 30.13 in SSW 3 mph 12 mph 40% 0 in 403.00 W/m2
13:54 50.1 °F 29.6 °F 30.12 in SSW 1 mph 8 mph 45% 0 in 1123.00 W/m2
13:59 50.3 °F 26.9 °F 30.13 in West 6 mph 9 mph 40% 0 in 1097.00 W/m2
14:04 50.3 °F 28.1 °F 30.13 in WSW 3 mph 10 mph 42% 0 in 1092.00 W/m2
14:09 50.6 °F 27.1 °F 30.12 in WSW 1 mph 10 mph 40% 0 in 1085.00 W/m2
14:14 51.2 °F 27.7 °F 30.12 in South 1 mph 10 mph 40% 0 in 1088.00 W/m2
14:19 51.9 °F 30.6 °F 30.12 in North 2 mph 10 mph 44% 0 in 1130.00 W/m2
14:24 53.3 °F 31.4 °F 30.12 in NNE 8 mph 9 mph 43% 0 in 1102.00 W/m2
14:29 52.8 °F 29.1 °F 30.12 in NW 9 mph 11 mph 40% 0 in 244.00 W/m2
14:34 50.6 °F 28.9 °F 30.12 in NE 6 mph 12 mph 43% 0 in 243.00 W/m2
14:39 49.7 °F 26.9 °F 30.12 in NW 5 mph 12 mph 41% 0 in 246.00 W/m2
14:44 49.4 °F 27.2 °F 30.12 in NW 1 mph 11 mph 42% 0 in 353.00 W/m2
14:49 49.6 °F 26.2 °F 30.12 in NW 1 mph 11 mph 40% 0 in 534.00 W/m2
14:54 50.5 °F 29.9 °F 30.12 in NW 1 mph 11 mph 45% 0 in 534.00 W/m2
14:59 50.7 °F 28.4 °F 30.12 in NW 1 mph 11 mph 42% 0 in 369.00 W/m2
15:04 50.3 °F 27.5 °F 30.12 in NW 1 mph 11 mph 41% 0 in 1074.00 W/m2
15:09 50.6 °F 27.1 °F 30.12 in NW 1 mph 11 mph 40% 0 in 1055.00 W/m2
15:14 50.7 °F 27.2 °F 30.12 in NW 1 mph 11 mph 40% 0 in 802.00 W/m2
15:19 51.2 °F 27.1 °F 30.12 in NW 1 mph 11 mph 39% 0 in 970.00 W/m2
15:24 51.6 °F 27.4 °F 30.11 in NW 1 mph 11 mph 39% 0 in 976.00 W/m2
15:29 52.1 °F 27.9 °F 30.11 in WSW 7 mph 9 mph 39% 0 in 788.00 W/m2
15:34 52.1 °F 27.2 °F 30.11 in SW 6 mph 12 mph 38% 0 in 1030.00 W/m2
15:39 51.9 °F 28.3 °F 30.11 in SSW 6 mph 12 mph 40% 0 in 923.00 W/m2
15:44 51.9 °F 27.1 °F 30.11 in WSW 7 mph 11 mph 38% 0 in 443.00 W/m2
15:49 51.5 °F 26.7 °F 30.11 in West 6 mph 11 mph 38% 0 in 332.00 W/m2
15:54 51.4 °F 29.1 °F 30.11 in NW 3 mph 10 mph 42% 0 in 329.00 W/m2
15:59 51.4 °F 28.5 °F 30.11 in NNE 4 mph 9 mph 41% 0 in 392.00 W/m2
16:04 52.1 °F 29.7 °F 30.11 in NNW 5 mph 9 mph 42% 0 in 410.00 W/m2
16:09 52.3 °F 29.3 °F 30.11 in NNW 5 mph 9 mph 41% 0 in 329.00 W/m2
16:14 52 °F 29 °F 30.11 in NNW 6 mph 10 mph 41% 0 in 279.00 W/m2
16:19 51.7 °F 26.9 °F 30.11 in WNW 9 mph 11 mph 38% 0 in 258.00 W/m2
16:24 51 °F 28.1 °F 30.11 in NNW 8 mph 11 mph 41% 0 in 243.00 W/m2
16:29 51 °F 28.1 °F 30.11 in NNW 2 mph 9 mph 41% 0 in 232.00 W/m2
16:34 50.8 °F 26.7 °F 30.11 in NW 3 mph 9 mph 39% 0 in 232.00 W/m2
16:39 50.6 °F 25.3 °F 30.11 in Calm   9 mph 37% 0 in 246.00 W/m2
16:44 50.6 °F 25.9 °F 30.11 in Calm   5 mph 38% 0 in 276.00 W/m2
16:49 50.9 °F 26.8 °F 30.11 in ENE 4 mph 5 mph 39% 0 in 278.00 W/m2
16:54 51 °F 26.3 °F 30.11 in East 1 mph 5 mph 38% 0 in 281.00 W/m2
16:59 51.4 °F 27.9 °F 30.11 in East 3 mph 5 mph 40% 0 in 272.00 W/m2
17:04 51.6 °F 26.8 °F 30.11 in ESE 2 mph 5 mph 38% 0 in 271.00 W/m2
17:09 51.7 °F 27.5 °F 30.11 in ENE 2 mph 5 mph 39% 0 in 269.00 W/m2
17:14 51.9 °F 26.4 °F 30.11 in East 3 mph 5 mph 37% 0 in 258.00 W/m2
17:19 51.9 °F 27.7 °F 30.11 in ENE 1 mph 5 mph 39% 0 in 258.00 W/m2
17:24 52 °F 27.8 °F 30.11 in Calm   5 mph 39% 0 in 304.00 W/m2
17:29 52.2 °F 26.7 °F 30.11 in ENE 2 mph 5 mph 37% 0 in 244.00 W/m2
17:34 51.8 °F 27.6 °F 30.11 in WNW 5 mph 8 mph 39% 0 in 230.00 W/m2
17:39 51.3 °F 26.5 °F 30.11 in West 1 mph 9 mph 38% 0 in 230.00 W/m2
17:44 51 °F 27.5 °F 30.12 in NW 6 mph 9 mph 40% 0 in 221.00 W/m2
17:49 50.8 °F 27.3 °F 30.12 in WNW 4 mph 9 mph 40% 0 in 213.00 W/m2
17:54 50.7 °F 26 °F 30.12 in WNW 1 mph 9 mph 38% 0 in 214.00 W/m2
17:59 50.8 °F 26.7 °F 30.12 in WNW 1 mph 5 mph 39% 0 in 218.00 W/m2
18:04 51 °F 27.5 °F 30.12 in NW 1 mph 5 mph 40% 0 in 211.00 W/m2
18:09 51.4 °F 29.1 °F 30.12 in NW 1 mph 5 mph 42% 0 in 223.00 W/m2
18:14 51.6 °F 27.4 °F 30.12 in NW 2 mph 4 mph 39% 0 in 207.00 W/m2
18:19 51.8 °F 28.2 °F 30.12 in WSW 2 mph 7 mph 40% 0 in 243.00 W/m2
18:24 51.7 °F 28.1 °F 30.12 in West 7 mph 7 mph 40% 0 in 234.00 W/m2
18:29 51.5 °F 28.6 °F 30.12 in WSW 1 mph 7 mph 41% 0 in 352.00 W/m2
18:34 51.9 °F 27.7 °F 30.12 in West 3 mph 6 mph 39% 0 in 503.00 W/m2
18:39 52 °F 28.4 °F 30.11 in West 8 mph 8 mph 40% 0 in 206.00 W/m2
18:44 51.5 °F 27.3 °F 30.12 in WSW 3 mph 8 mph 39% 0 in 176.00 W/m2
18:49 51.1 °F 27 °F 30.12 in WSW 3 mph 8 mph 39% 0 in 155.00 W/m2
18:54 50.9 °F 27.4 °F 30.12 in West 4 mph 8 mph 40% 0 in 135.00 W/m2
18:59 50.7 °F 27.2 °F 30.12 in Calm   8 mph 40% 0 in 120.00 W/m2
19:04 50.7 °F 29 °F 30.12 in West 1 mph 6 mph 43% 0 in 107.00 W/m2
19:09 50.6 °F 26.5 °F 30.12 in West 1 mph 4 mph 39% 0 in 91.00 W/m2
19:14 50.5 °F 27 °F 30.12 in West 3 mph 4 mph 40% 0 in 88.00 W/m2
19:19 50.4 °F 28.1 °F 30.12 in West 2 mph 4 mph 42% 0 in 86.00 W/m2
19:24 50.2 °F 29.1 °F 30.12 in West 1 mph 4 mph 44% 0 in 83.00 W/m2
19:29 50.1 °F 29 °F 30.12 in West 3 mph 4 mph 44% 0 in 77.00 W/m2
19:34 50 °F 27.8 °F 30.12 in West 1 mph 3 mph 42% 0 in 151.00 W/m2
19:39 50.7 °F 30.1 °F 30.12 in West 1 mph 3 mph 45% 0 in 172.00 W/m2
19:44 51.4 °F 27.9 °F 30.12 in West 2 mph 2 mph 40% 0 in 155.00 W/m2
19:49 51.9 °F 27.1 °F 30.12 in Calm   2 mph 38% 0 in 141.00 W/m2
19:54 52.5 °F 28.2 °F 30.12 in West 1 mph 2 mph 39% 0 in 121.00 W/m2
19:59 52.8 °F 28.5 °F 30.12 in Calm   2 mph 39% 0 in 81.00 W/m2
20:04 52.4 °F 29.4 °F 30.13 in West 2 mph 2 mph 41% 0 in 72.00 W/m2
20:09 51.8 °F 28.8 °F 30.13 in West 1 mph 2 mph 41% 0 in 47.00 W/m2
20:14 51.3 °F 27.8 °F 30.13 in West 2 mph 2 mph 40% 0 in 44.00 W/m2
20:19 50.7 °F 27.8 °F 30.13 in West 1 mph 2 mph 41% 0 in 37.00 W/m2
20:24 50.1 °F 28.4 °F 30.13 in WSW 2 mph 4 mph 43% 0 in 26.00 W/m2
20:29 49.6 °F 28.6 °F 30.13 in WSW 2 mph 4 mph 44% 0 in 19.00 W/m2
20:34 49.1 °F 29.2 °F 30.13 in WSW 2 mph 4 mph 46% 0 in 16.00 W/m2
20:39 48.6 °F 28.7 °F 30.13 in WSW 3 mph 4 mph 46% 0 in 12.00 W/m2
20:44 48.1 °F 28.8 °F 30.13 in WSW 3 mph 4 mph 47% 0 in 9.00 W/m2
20:49 47.7 °F 28.4 °F 30.14 in SW 4 mph 4 mph 47% 0 in 7.00 W/m2
20:54 47.4 °F 28.2 °F 30.14 in SW 3 mph 4 mph 47% 0 in 5.00 W/m2
20:59 47.3 °F 28.1 °F 30.14 in SW 3 mph 4 mph 47% 0 in 0.00 W/m2
21:04 47.2 °F 28 °F 30.14 in SW 2 mph 4 mph 47% 0 in 0.00 W/m2
21:09 46.9 °F 28.2 °F 30.14 in SW 2 mph 4 mph 48% 0 in 0.00 W/m2
21:14 46.8 °F 28.1 °F 30.14 in SW 2 mph 4 mph 48% 0 in 0.00 W/m2
21:19 46.6 °F 28.4 °F 30.14 in SW 3 mph 3 mph 49% 0 in 0.00 W/m2
21:24 46.4 °F 28.3 °F 30.14 in SW 3 mph 3 mph 49% 0 in 0.00 W/m2
21:29 46.3 °F 28.2 °F 30.14 in SW 3 mph 3 mph 49% 0 in 0.00 W/m2
21:34 46.2 °F 28.6 °F 30.14 in SW 3 mph 3 mph 50% 0 in 0.00 W/m2
21:39 46.1 °F 28 °F 30.14 in SW 2 mph 4 mph 49% 0 in 0.00 W/m2
21:44 46.1 °F 27.5 °F 30.14 in SW 2 mph 4 mph 48% 0 in 0.00 W/m2
21:49 46.2 °F 27.6 °F 30.14 in SW 3 mph 3 mph 48% 0 in 0.00 W/m2
21:54 46.2 °F 28.1 °F 30.14 in SW 2 mph 3 mph 49% 0 in 0.00 W/m2
21:59 46.2 °F 28.1 °F 30.15 in SW 3 mph 3 mph 49% 0 in 0.00 W/m2
22:04 46.2 °F 27.6 °F 30.15 in SW 2 mph 3 mph 48% 0 in 0.00 W/m2
22:09 46.2 °F 28.1 °F 30.15 in SW 2 mph 3 mph 49% 0 in 0.00 W/m2
22:14 46.2 °F 27.6 °F 30.15 in SW 2 mph 3 mph 48% 0 in 0.00 W/m2
22:19 46.2 °F 27.6 °F 30.15 in SW 3 mph 3 mph 48% 0 in 0.00 W/m2
22:24 46 °F 27.4 °F 30.15 in SW 3 mph 4 mph 48% 0 in 0.00 W/m2
22:29 45.9 °F 27.8 °F 30.15 in SW 3 mph 4 mph 49% 0 in 0.00 W/m2
22:34 45.6 °F 28.5 °F 30.15 in SSW 2 mph 4 mph 51% 0 in 0.00 W/m2
22:39 45.2 °F 28.6 °F 30.15 in SSW 3 mph 4 mph 52% 0 in 0.00 W/m2
22:44 44.9 °F 28.8 °F 30.15 in SSW 3 mph 4 mph 53% 0 in 0.00 W/m2
22:49 44.6 °F 29 °F 30.15 in South 3 mph 10 mph 54% 0 in 0.00 W/m2
22:54 44.2 °F 29.5 °F 30.15 in SSE 5 mph 10 mph 56% 0 in 0.00 W/m2
22:59 44 °F 29.7 °F 30.15 in SSW 8 mph 10 mph 57% 0 in 0.00 W/m2
23:04 44.2 °F 30.8 °F 30.15 in South 3 mph 12 mph 59% 0 in 0.00 W/m2
23:09 44.2 °F 31.2 °F 30.16 in South 8 mph 12 mph 60% 0 in 0.00 W/m2
23:14 44.2 °F 31.6 °F 30.16 in SSE 5 mph 12 mph 61% 0 in 0.00 W/m2
23:19 43.7 °F 31.9 °F 30.16 in SSE 6 mph 12 mph 63% 0 in 0.00 W/m2
23:24 43.4 °F 32 °F 30.16 in South 5 mph 10 mph 64% 0 in 0.00 W/m2
23:29 43.2 °F 32.2 °F 30.15 in South 4 mph 8 mph 65% 0 in 0.00 W/m2
23:34 43 °F 32.4 °F 30.16 in South 6 mph 8 mph 66% 0 in 0.00 W/m2
23:39 42.8 °F 33 °F 30.16 in SSE 6 mph 10 mph 68% 0 in 0.00 W/m2
23:44 42.5 °F 33 °F 30.16 in South 8 mph 11 mph 69% 0 in 0.00 W/m2
23:49 42.3 °F 33.2 °F 30.16 in South 6 mph 11 mph 70% 0 in 0.00 W/m2
23:54 42 °F 33.3 °F 30.16 in SSE 5 mph 10 mph 71% 0 in 0.00 W/m2
23:59 41.9 °F 33.5 °F 30.16 in South 7 mph 11 mph 72% 0 in 0.00 W/m2
Bismarck, North Dakota, USA
Compliments of Weather Underground - 4 mb